Flight Track Log - Related Links

Times and Time Zones

All times are in EDT time to prevent confusion due to time zone crossing. See the CSN3226 flight status page for this flight to view local times or setup timezone preferences in your user account.


Time Position Orientation Groundspeed Altitude Reporting Facility
EDT Latitude Longitude Course Direction KTS MPH feet Rate Location/Type
Thu 12:17:00 AM 34.3408 108.8034 158° South  Level Estimated
Thu 12:18:00 AM 34.2344 108.8550 158° South  Level Estimated
Thu 12:19:00 AM 34.1280 108.9065 158° South  Level Estimated
Thu 12:20:00 AM 34.0216 108.9578 158° South  Level Estimated
Thu 12:21:00 AM 33.9151 109.0091 158° South  Level Estimated
Thu 12:22:00 AM 33.8087 109.0602 158° South  Level Estimated
Thu 12:23:00 AM 33.7022 109.1112 158° South  Level Estimated
Thu 12:24:00 AM 33.5957 109.1620 158° South  Level Estimated
Thu 12:25:00 AM 33.4892 109.2128 158° South  Level Estimated
Thu 12:26:00 AM 33.3826 109.2634 158° South  Level Estimated
Thu 12:27:00 AM 33.2760 109.3139 158° South  Level Estimated
Thu 12:28:00 AM 33.1694 109.3642 158° South  Level Estimated
Thu 12:29:00 AM 33.0628 109.4145 158° South  Level Estimated
Thu 12:30:00 AM 32.9562 109.4646 158° South  Level Estimated
Thu 12:31:00 AM 32.8496 109.5146 159° South  Level Estimated
Thu 12:32:00 AM 32.7429 109.5645 159° South  Level Estimated
Thu 12:33:00 AM 32.6362 109.6142 159° South  Level Estimated
Thu 12:34:00 AM 32.5295 109.6639 159° South  Level Estimated
Thu 12:35:00 AM 32.4228 109.7134 159° South  Level Estimated
Thu 12:36:00 AM 32.3160 109.7628 159° South  Level Estimated
Thu 12:37:00 AM 32.2093 109.8121 159° South  Level Estimated
Thu 12:38:00 AM 32.1025 109.8612 159° South  Level Estimated
Thu 12:39:00 AM 31.9957 109.9103 159° South  Level Estimated
Thu 12:40:00 AM 31.8889 109.9592 159° South  Level Estimated
Thu 12:41:00 AM 31.7820 110.0081 159° South  Level Estimated
Thu 12:42:00 AM 31.6752 110.0568 159° South  Level Estimated
Thu 12:43:00 AM 31.5683 110.1054 159° South  Level Estimated
Thu 12:44:00 AM 31.4614 110.1539 159° South  Level Estimated
Thu 12:45:00 AM 31.3545 110.2023 159° South  Level Estimated
Thu 12:46:00 AM 31.2475 110.2505 159° South  Level Estimated
Thu 12:47:00 AM 31.1406 110.2987 159° South  Level Estimated
Thu 12:48:00 AM 31.0336 110.3467 159° South  Level Estimated
Thu 12:49:00 AM 30.9266 110.3947 159° South  Level Estimated
Thu 12:50:00 AM 30.8197 110.4425 159° South  Level Estimated
Thu 12:51:00 AM 30.7126 110.4903 159° South  Level Estimated
Thu 12:52:00 AM 30.6056 110.5379 159° South  Level Estimated
Thu 12:53:00 AM 30.4985 110.5854 159° South  Level Estimated
Thu 12:54:00 AM 30.3915 110.6328 159° South  Level Estimated
Thu 12:55:00 AM 30.2844 110.6801 159° South  Level Estimated
Thu 12:56:00 AM 30.1773 110.7273 159° South  Level Estimated
Thu 12:57:00 AM 30.0702 110.7745 159° South  Level Estimated
Thu 12:58:00 AM 29.9630 110.8215 159° South  Level Estimated
Thu 12:59:00 AM 29.8559 110.8684 159° South  Level Estimated
Thu 01:00:00 AM 29.7487 110.9152 159° South  Level Estimated
Thu 01:01:00 AM 29.6415 110.9619 159° South  Level Estimated
Thu 01:02:00 AM 29.5343 111.0085 159° South  Level Estimated
Thu 01:03:00 AM 29.4271 111.0550 159° South  Level Estimated
Thu 01:04:00 AM 29.3198 111.1014 159° South  Level Estimated
Thu 01:05:00 AM 29.2126 111.1477 159° South  Level Estimated
Thu 01:06:00 AM 29.1053 111.1939 159° South  Level Estimated
Thu 01:07:00 AM 28.9980 111.2400 159° South  Level Estimated
Thu 01:08:00 AM 28.8907 111.2860 159° South  Level Estimated
Thu 01:09:00 AM 28.7834 111.3320 159° South  Level Estimated
Thu 01:10:00 AM 28.6761 111.3778 159° South  Level Estimated
Thu 01:11:00 AM 28.5687 111.4236 159° South  Level Estimated
Thu 01:12:00 AM 28.4613 111.4692 160° South  Level Estimated
Thu 01:13:00 AM 28.3540 111.5147 160° South  Level Estimated
Thu 01:14:00 AM 28.2466 111.5602 160° South  Level Estimated
Thu 01:15:00 AM 28.1392 111.6056 160° South  Level Estimated
Thu 01:16:00 AM 28.0317 111.6509 160° South  Level Estimated
Thu 01:17:00 AM 27.9243 111.6961 160° South  Level Estimated
Thu 01:18:00 AM 27.8169 111.7411 160° South  Level Estimated
Thu 01:19:00 AM 27.7094 111.7862 160° South  Level Estimated
Thu 01:20:00 AM 27.6019 111.8311 160° South  Level Estimated
Thu 01:21:00 AM 27.4944 111.8759 160° South  Level Estimated
Thu 01:22:00 AM 27.3869 111.9207 160° South  Level Estimated
Thu 01:23:00 AM 27.2794 111.9653 160° South  Level Estimated
Thu 01:24:00 AM 27.1718 112.0099 160° South  Level Estimated
Thu 01:25:00 AM 27.0643 112.0544 160° South  Level Estimated
Thu 01:26:00 AM 26.9567 112.0988 160° South  Level Estimated
Thu 01:27:00 AM 26.8491 112.1431 160° South  Level Estimated
Thu 01:28:00 AM 26.7416 112.1873 160° South  Level Estimated
Thu 01:29:00 AM 26.6339 112.2315 160° South  Level Estimated
Thu 01:30:00 AM 26.5263 112.2755 160° South  Level Estimated
Thu 01:31:00 AM 26.4187 112.3195 160° South  Level Estimated
Thu 01:32:00 AM 26.3110 112.3634 160° South  Level Estimated
Thu 01:33:00 AM 26.2034 112.4072 160° South  Level Estimated
Thu 01:34:00 AM 26.0957 112.4510 160° South  Level Estimated
Thu 01:35:00 AM 25.9880 112.4946 160° South  Level Estimated
Thu 01:36:00 AM 25.8803 112.5382 160° South  Level Estimated
Thu 01:37:00 AM 25.7726 112.5817 160° South  Level Estimated
Thu 01:38:00 AM 25.6649 112.6251 160° South  Level Estimated
Thu 01:39:00 AM 25.5571 112.6685 160° South  Level Estimated
Thu 01:40:00 AM 25.4494 112.7117 160° South  Level Estimated
Thu 01:41:00 AM 25.3416 112.7549 160° South  Level Estimated
Thu 01:42:00 AM 25.2338 112.7980 160° South  Level Estimated
Thu 01:43:00 AM 25.1260 112.8411 160° South  Level Estimated
Thu 01:44:00 AM 25.0182 112.8840 160° South  Level Estimated
Thu 01:45:00 AM 24.9104 112.9269 160° South  Level Estimated
Thu 01:46:00 AM 24.8026 112.9697 160° South  Level Estimated
Thu 01:47:00 AM 24.6947 113.0125 160° South  Level Estimated
Thu 01:48:00 AM 24.5869 113.0551 160° South  Level Estimated
Thu 01:49:00 AM 24.4790 113.0977 160° South  Level Estimated
Thu 01:50:00 AM 24.3711 113.1402 160° South  Level Estimated
Thu 01:51:00 AM 24.2633 113.1826 160° South  Level Estimated
Thu 01:52:00 AM 24.1554 113.2250 160° South  Level Estimated
Thu 01:53:00 AM 24.0474 113.2673 160° South  Level Estimated
Thu 01:54:00 AM 23.9395 113.3095 160° South  Level Estimated
Thu 01:55:00 AM 23.8316 113.3517 160° South  Level Estimated
Thu 01:56:00 AM 23.7236 113.3938 160° South  Level Estimated
Thu 01:57:00 AM 23.6157 113.4358 160° South  Level Estimated
Thu 01:58:00 AM 23.5077 113.4777 160° South  Level Estimated
Thu 01:59:00 AM 23.3997 113.5196 160° South  Level Estimated
Thu 02:00:00 AM 23.2917 113.5614 160° South  Level Estimated
Thu 02:01:00 AM 23.1838 113.6031 160° South  Level Estimated
Thu 02:02:00 AM 23.0757 113.6448 160° South  Level Estimated
Thu 02:03:00 AM 22.9677 113.6864 160° South  Level Estimated
Thu 02:04:00 AM 22.8597 113.7280 160° South  Level Estimated
Thu 02:05:00 AM 22.7516 113.7694 161° South  Level Estimated
Thu 02:06:00 AM 22.6436 113.8108 161° South  Level Estimated
Thu 02:07:00 AM 22.6395 113.8124 161° South  Level Estimated
Thu 02:08:00 AM 22.6395 113.8124 25° Northeast  Level Estimated
Thu 02:09:00 AM 22.6395 113.8124 25° Northeast  Level Estimated
Thu 02:10:00 AM 22.6395 113.8124 25° Northeast  Level Estimated
Thu 02:11:00 AM 22.6395 113.8124 25° Northeast  Level Estimated
Thu 02:12:00 AM 22.6395 113.8124 25° Northeast  Level Estimated
Thu 02:13:00 AM 22.6395 113.8124 25° Northeast  Level Estimated
Thu 02:14:00 AM 22.6395 113.8124 25° Northeast  Level Estimated
Thu 02:15:00 AM 22.6395 113.8124 25° Northeast  Level Estimated
Thu 02:16:00 AM 22.6395 113.8124 25° Northeast  Level Estimated
Thu 02:17:00 AM 22.6395 113.8124 25° Northeast  Level Estimated
Thu 02:18:00 AM 22.6395 113.8124 25° Northeast  Level Estimated
Thu 02:19:00 AM 22.6395 113.8124 25° Northeast  Level Estimated
Thu 02:20:00 AM 22.6395 113.8124 25° Northeast  Level Estimated
Thu 02:21:00 AM 22.6395 113.8124 25° Northeast  Level Estimated
Thu 02:22:00 AM 22.6395 113.8124 25° Northeast  Level Estimated
Thu 02:23:00 AM 22.6395 113.8124 25° Northeast  Level Estimated

Login

Don't have an account? Register now (free) for customized features, flight alerts, and more!